Ballymena, United Kingdom
Current Conditions -  °F | °C
As of 2:50 AM on Thursday 27 Nov 2014 (Local Time) from EGAA Reporting Station
Moderate Fog Moderate Fog  
Wind Chill: 32°   Ceiling: Unl
Heat Index: 32°   Visibility: 0.37mi
Dew Point: 32°   Wind: 2mph
Humidity: 100%   Direction: NA
Pressure: 29.65"   Gusts: NA
Location:  54.86°N, 6.28°W
Report Text: EGAA 270250Z VRB02KT 0600 R25/0650 R07/0300 FZFG FEW000 M00/M00 Q1004
Loading
Personal Weather Stations






























Interactive Weather Map New forecast layout! Learn more

10-Day Weather Forecast

Advertisements
Track Severe Weather on mobile